• Join FlightAware (Why Join?)
  • Login
  • US Flag 
04:52AM EDT


 

Airport Tracker/Info


-or-


 

Live Flight TrackerFlight Track Log ✈ N8170A ✈ 03-May-2012 ✈ KHEZ - 6A4

Flight Track Log - Related Links

Times and Time Zones

All times are in EDT time to prevent confusion due to time zone crossing. See the N8170A flight status page for this flight to view local times or setup timezone preferences in your user account.

Time Position Orientation Groundspeed Altitude Reporting Facility
EDT Latitude Longitude Course Direction KTS MPH feet Rate Location/Type
04:40PM 31.8414 -91.0397 53° Northeast 157 181 7,300  Level Memphis Center
04:41PM 31.8644 -91.0031 36° Northeast 143 165 8,000 600 Climbing Memphis Center
04:42PM 31.8958 -90.9764 33° Northeast 138 159 8,600 480 Climbing Memphis Center
04:43PM 31.9272 -90.9522 45° Northeast 131 151 9,000 180 Climbing Memphis Center
04:44PM 31.9567 -90.9181 56° Northeast 136 157 9,000  Level Memphis Center
04:45PM 31.9861 -90.8667 43° Northeast 158 182 9,000  Level Memphis Center
04:46PM 32.0197 -90.8303 43° Northeast 158 182 9,000  Level Memphis Center
04:47PM 32.0533 -90.7936 49° Northeast 158 182 9,000  Level Memphis Center
04:48PM 32.0825 -90.7544 43° Northeast 158 182 9,000  Level Memphis Center
04:49PM 32.1161 -90.7178 43° Northeast 158 182 9,000  Level Memphis Center
04:50PM 32.1475 -90.6836 25° Northeast 152 175 9,000  Level Memphis Center
04:51PM 32.1831 -90.6642 33° Northeast 147 169 9,000  Level Memphis Center
04:52PM 32.2186 -90.6372 41° Northeast 141 162 9,000  Level Memphis Center
04:53PM 32.2522 -90.6031 35° Northeast 148 170 9,000  Level Memphis Center
04:54PM 32.2875 -90.5736 34° Northeast 154 177 9,000  Level Memphis Center
04:55PM 32.3211 -90.5467 33° Northeast 149 171 9,000  Level Memphis Center
04:56PM 32.3567 -90.5197 35° Northeast 149 171 9,000  Level Memphis Center
04:57PM 32.3922 -90.4903 35° Northeast 149 171 9,000  Level Memphis Center
04:58PM 32.4275 -90.4606 33° Northeast 149 171 9,000  Level Memphis Center
04:59PM 32.4631 -90.4336 33° Northeast 149 171 9,000  Level Memphis Center
05:00PM 32.4986 -90.4067 31° Northeast 149 171 9,000  Level Memphis Center
05:01PM 32.5361 -90.3794 36° Northeast 149 171 9,000  Level Memphis Center
05:02PM 32.5697 -90.3500 34° Northeast 149 171 9,000  Level Memphis Center
05:03PM 32.6072 -90.3203 32° Northeast 149 171 9,000  Level Memphis Center
05:04PM 32.6406 -90.2956 35° Northeast 149 171 9,000  Level Memphis Center
05:05PM 32.6739 -90.2683 33° Northeast 149 171 9,000  Level Memphis Center
05:06PM 32.7094 -90.2411 35° Northeast 149 171 9,000  Level Memphis Center
05:07PM 32.7450 -90.2117 34° Northeast 149 171 9,000  Level Memphis Center
05:08PM 32.7825 -90.1819 33° Northeast 149 171 9,000  Level Memphis Center
05:09PM 32.8178 -90.1544 35° Northeast 149 171 9,000  Level Memphis Center
05:10PM 32.8533 -90.1247 31° Northeast 149 171 9,000  Level Memphis Center
05:11PM 32.8908 -90.0975 35° Northeast 149 171 9,000  Level Memphis Center
05:12PM 32.9261 -90.0678 33° Northeast 149 171 9,000  Level Memphis Center
05:13PM 32.9617 -90.0403 33° Northeast 149 171 9,000  Level Memphis Center
05:14PM 32.9972 -90.0131 35° Northeast 149 171 9,000  Level Memphis Center
05:15PM 33.0325 -89.9831 35° Northeast 149 171 9,000  Level Memphis Center
05:16PM 33.0658 -89.9556 34° Northeast 149 171 9,000  Level Memphis Center
05:17PM 33.1033 -89.9258 43° Northeast 149 171 9,000  Level Memphis Center
05:18PM 33.1344 -89.8908 47° Northeast 149 171 9,000  Level Memphis Center
05:19PM 33.1636 -89.8536 17° North 149 171 9,000  Level Memphis Center
05:20PM 33.2053 -89.8383 28° Northeast 149 171 9,000  Level Memphis Center
05:21PM 33.2447 -89.8133 33° Northeast 149 171 9,000  Level Memphis Center
05:22PM 33.2800 -89.7856 35° Northeast 149 171 9,000  Level Memphis Center
05:23PM 33.3156 -89.7556 32° Northeast 154 177 9,000  Level Memphis Center
05:24PM 33.3528 -89.7281 35° Northeast 154 177 9,000  Level Memphis Center
05:25PM 33.3883 -89.6981 40° Northeast 154 177 9,000  Level Memphis Center
05:26PM 33.4214 -89.6653 33° Northeast 149 171 9,000  Level Memphis Center
05:27PM 33.4567 -89.6378 27° Northeast 149 171 9,100  Climbing Memphis Center
05:28PM 33.4942 -89.6150 North 149 171 9,100 -60 Level Memphis Center
05:29PM 33.5358 -89.6069 53° Northeast 144 166 9,000  Descending Memphis Center
05:30PM 33.5628 -89.5644 38° Northeast 139 160 9,100  Climbing Memphis Center
05:31PM 33.5981 -89.5317 34° Northeast 146 168 9,100  Level Memphis Center
05:32PM 33.6356 -89.5014 38° Northeast 153 176 9,100  Level Memphis Center
05:33PM 33.6706 -89.4686 32° Northeast 153 176 9,100  Level Memphis Center
05:34PM 33.7081 -89.4408 36° Northeast 153 176 9,100  Level Memphis Center
05:35PM 33.7433 -89.4103 34° Northeast 153 176 9,100  Level Memphis Center
05:36PM 33.7806 -89.3800 35° Northeast 153 176 9,100  Level Memphis Center
05:37PM 33.8222 -89.3444 35° Northeast 153 176 9,100  Level Memphis Center
05:38PM 33.8553 -89.3167 36° Northeast 153 176 9,100 -60 Level Memphis Center
05:39PM 33.8925 -89.2836 34° Northeast 159 183 9,000 -60 Descending Memphis Center
05:40PM 33.9297 -89.2531 32° Northeast 154 177 9,000  Level Memphis Center
05:41PM 33.9672 -89.2250 36° Northeast 154 177 9,100  Climbing Memphis Center
05:42PM 34.0022 -89.1944 32° Northeast 154 177 9,000 -60 Descending Memphis Center
05:43PM 34.0397 -89.1664 36° Northeast 149 171 9,000  Level Memphis Center
05:44PM 34.0769 -89.1333 33° Northeast 149 171 9,000  Level Memphis Center
05:45PM 34.1183 -89.1003 37° Northeast 154 177 9,000  Level Memphis Center
05:46PM 34.1556 -89.0669 33° Northeast 154 177 9,000  Level Memphis Center
05:47PM 34.1908 -89.0389 34° Northeast 148 170 9,000  Level Memphis Center
05:48PM 34.2281 -89.0081 33° Northeast 156 180 9,000  Level Memphis Center
05:49PM 34.2672 -88.9775 36° Northeast 156 180 9,000  Level Memphis Center
05:50PM 34.3044 -88.9442 31° Northeast 156 180 9,000  Level Memphis Center
05:51PM 34.3439 -88.9158 37° Northeast 161 185 9,000  Level Memphis Center
05:52PM 34.3808 -88.8825 36° Northeast 161 185 9,000  Level Memphis Center
05:53PM 34.4161 -88.8517 46° Northeast 161 185 9,000  Level Memphis Center
05:54PM 34.4428 -88.8183 70° East 156 180 9,000  Level Memphis Center
05:55PM 34.4589 -88.7653 71° East 150 173 9,000  Level Memphis Center
05:56PM 34.4747 -88.7094 69° East 156 180 9,000  Level Memphis Center
05:57PM 34.4908 -88.6589 70° East 156 180 9,000  Level Memphis Center
05:58PM 34.5067 -88.6056 69° East 156 180 9,000  Level Memphis Center
05:59PM 34.5228 -88.5547 68° East 156 180 9,000  Level Memphis Center
06:00PM 34.5406 -88.5014 70° East 156 180 9,000  Level Memphis Center
06:01PM 34.5567 -88.4481 68° East 161 185 9,000  Level Memphis Center
06:02PM 34.5725 -88.3997 69° East 161 185 9,000  Level Memphis Center
06:03PM 34.5883 -88.3489 70° East 161 185 9,000  Level Memphis Center
06:04PM 34.6042 -88.2956 68° East 161 185 9,000  Level Memphis Center
06:05PM 34.6219 -88.2422 70° East 166 191 9,000  Level Memphis Center
06:06PM 34.6378 -88.1889 69° East 166 191 9,000  Level Memphis Center
06:07PM 34.6536 -88.1378 68° East 171 197 9,100  Climbing Memphis Center
06:08PM 34.6733 -88.0794 69° East 171 197 9,100  Level Memphis Center
06:09PM 34.6911 -88.0233 70° East 171 197 9,100  Level Memphis Center
06:10PM 34.7069 -87.9697 68° East 171 197 9,100  Level Memphis Center
06:11PM 34.7244 -87.9161 71° East 171 197 9,100  Level Memphis Center
06:12PM 34.7400 -87.8603 68° East 171 197 9,100  Level Memphis Center
06:13PM 34.7558 -87.8117 69° East 171 197 9,100  Level Memphis Center
06:14PM 34.7733 -87.7556 69° East 171 197 9,100  Level Memphis Center
06:15PM 34.7911 -87.6994 84° East 171 197 9,100  Level Memphis Center
06:16PM 34.7961 -87.6411 89° East 171 197 9,100  Level Memphis Center
06:17PM 34.7969 -87.5828 89° East 165 190 9,100  Level Memphis Center
06:18PM 34.7975 -87.5169 85° East 165 190 9,100  Level Memphis Center
06:19PM 34.8022 -87.4561 84° East 165 190 9,100  Level Memphis Center
06:20PM 34.8072 -87.3978 64° Northeast 165 190 9,100 -60 Level Memphis Center
06:21PM 34.8289 -87.3439 72° East 165 190 9,000 -60 Descending Memphis Center
06:22PM 34.8442 -87.2853 69° East 165 190 9,000  Level Memphis Center
06:23PM 34.8614 -87.2314 60° Northeast 170 196 9,000  Level Memphis Center
06:24PM 34.8833 -87.1850 57° Northeast 170 196 9,100  Climbing Memphis Center
06:25PM 34.9111 -87.1333 68° East 176 203 9,000 -60 Descending Memphis Center
06:26PM 34.9286 -87.0794 72° East 176 203 9,000  Level Memphis Center
06:27PM 34.9436 -87.0233 84° East 171 197 9,000  Level Memphis Center
06:28PM 34.9483 -86.9647 73° East 171 197 9,000  Level Memphis Center
06:29PM 34.9633 -86.9058 71° East 171 197 9,000  Level Memphis Center
06:30PM 34.9806 -86.8444 69° East 171 197 9,000  Level Memphis Center
06:31PM 34.9978 -86.7903 69° East 171 197 9,000  Level Memphis Center
06:37PM 35.0892 -86.5022 71° East 176 203 9,000  Level Memphis Center
06:38PM 35.1061 -86.4406 69° East 182 209 9,000  Level Memphis Center
06:39PM 35.1231 -86.3867 68° East 182 209 9,000  Level Memphis Center
06:40PM 35.1403 -86.3350 70° East 163 188 9,000  Level Memphis Center
06:41PM 35.1592 -86.2731 69° East 171 197 9,000  Level Memphis Center
06:42PM 35.1761 -86.2189 72° East 176 203 9,000  Level Memphis Center
06:43PM 35.1928 -86.1572 72° East 176 203 9,000  Level Memphis Center
06:44PM 35.2075 -86.1006 67° East 171 197 9,000  Level Memphis Center
06:45PM 35.2264 -86.0461 69° East 171 197 9,000  Level Memphis Center
06:46PM 35.2433 -85.9919 69° East 171 197 9,000  Level Memphis Center
06:47PM 35.2603 -85.9375 70° East 171 197 9,000  Level Memphis Center
06:54PM 35.3788 -85.5431 70° East  Level FlightAware Approximate
06:55PM 35.3952 -85.4880 70° East  Level FlightAware Approximate
06:56PM 35.4116 -85.4328 81° East  Level FlightAware Approximate
06:57PM 35.4190 -85.3750 70° East  Level FlightAware Approximate
06:58PM 35.4355 -85.3198 70° East  Level FlightAware Approximate
06:59PM 35.4520 -85.2647 70° East  Level FlightAware Approximate
07:00PM 35.4685 -85.2095 70° East  Level FlightAware Approximate
07:01PM 35.4849 -85.1543 70° East  Level FlightAware Approximate
07:02PM 35.5013 -85.0991 70° East  Level FlightAware Approximate
07:03PM 35.5177 -85.0439 70° East  Level FlightAware Approximate
07:04PM 35.5340 -84.9886 70° East  Level FlightAware Approximate
07:05PM 35.5503 -84.9333 70° East  Level FlightAware Approximate
07:06PM 35.5666 -84.8781 66° East  Level FlightAware Approximate
07:07PM 35.5845 -84.8292 70° East  Level FlightAware Approximate
07:08PM 35.6007 -84.7738 70° East  Level FlightAware Approximate
07:09PM 35.6169 -84.7185 70° East  Level FlightAware Approximate
07:10PM 35.6330 -84.6630 70° East  Level FlightAware Approximate
07:11PM 35.6491 -84.6076 70° East  Level FlightAware Approximate
07:12PM 35.6652 -84.5521 70° East  Level FlightAware Approximate
07:13PM 35.6813 -84.4966 70° East  Level FlightAware Approximate
07:14PM 35.6973 -84.4411 70° East  Level FlightAware Approximate
07:15PM 35.7131 -84.3863 70° East  Level FlightAware Approximate
07:16PM 35.7289 -84.3314 71° East  Level FlightAware Approximate
07:17PM 35.7447 -84.2765 71° East  Level FlightAware Approximate
07:18PM 35.7604 -84.2216 71° East  Level FlightAware Approximate
07:19PM 35.7761 -84.1666 71° East  Level FlightAware Approximate
07:20PM 35.7918 -84.1117 71° East  Level FlightAware Approximate
07:21PM 35.8074 -84.0567 71° East  Level FlightAware Approximate
07:22PM 35.8231 -84.0017 71° East  Level FlightAware Approximate
07:23PM 35.8387 -83.9466 71° East  Level FlightAware Approximate
07:24PM 35.8543 -83.8916 71° East  Level FlightAware Approximate
07:25PM 35.8699 -83.8365 71° East  Level FlightAware Approximate
07:26PM 35.8854 -83.7814 71° East  Level FlightAware Approximate
07:27PM 35.9009 -83.7263 71° East  Level FlightAware Approximate
07:28PM 35.9164 -83.6712 71° East  Level FlightAware Approximate
07:29PM 35.9319 -83.6161 71° East  Level FlightAware Approximate
07:30PM 35.9473 -83.5609 71° East  Level FlightAware Approximate
07:31PM 35.9627 -83.5057 71° East  Level FlightAware Approximate
07:32PM 35.9781 -83.4504 71° East  Level FlightAware Approximate
07:33PM 35.9935 -83.3952 71° East  Level FlightAware Approximate
07:34PM 36.0088 -83.3399 71° East  Level FlightAware Approximate
07:35PM 36.0241 -83.2847 71° East  Level FlightAware Approximate
07:36PM 36.0394 -83.2293 71° East  Level FlightAware Approximate
07:37PM 36.0546 -83.1740 80° East  Level FlightAware Approximate
07:38PM 36.0625 -83.1200 71° East  Level FlightAware Approximate
07:39PM 36.0781 -83.0648 71° East  Level FlightAware Approximate
07:40PM 36.0936 -83.0096 71° East  Level FlightAware Approximate
07:41PM 36.1090 -82.9543 71° East  Level FlightAware Approximate
07:42PM 36.1245 -82.8990 71° East  Level FlightAware Approximate
07:43PM 36.1399 -82.8437 71° East  Level FlightAware Approximate
07:44PM 36.1553 -82.7883 71° East  Level FlightAware Approximate
07:45PM 36.1707 -82.7330 71° East  Level FlightAware Approximate
07:46PM 36.1860 -82.6776 78° East  Level FlightAware Approximate
07:47PM 36.1954 -82.6219 70° East  Level FlightAware Approximate
07:48PM 36.2112 -82.5667 71° East  Level FlightAware Approximate
07:49PM 36.2269 -82.5115 71° East  Level FlightAware Approximate
07:50PM 36.2426 -82.4562 71° East  Level FlightAware Approximate
07:51PM 36.2584 -82.4009 71° East  Level FlightAware Approximate
07:52PM 36.2740 -82.3456 71° East  Level FlightAware Approximate
07:53PM 36.2897 -82.2903 71° East  Level FlightAware Approximate
07:54PM 36.3053 -82.2350 71° East  Level FlightAware Approximate
07:55PM 36.3209 -82.1796 78° East  Level FlightAware Approximate
07:56PM 36.3304 -82.1254 67° East  Level FlightAware Approximate
07:57PM 36.3485 -82.0712 68° East  Level FlightAware Approximate
07:58PM 36.3666 -82.0169 68° East  Level FlightAware Approximate